Flint, Michigan
Current Conditions -  °F | °C
As of 4:53 AM on Thursday 23 Oct 2014 (Local Time) from KFNT Reporting Station
Broken Clouds Broken Clouds  
Wind Chill: 30°   Ceiling: 200
Heat Index: 30°   Visibility: 7mi
Dew Point: 27°   Wind: 3mph
Humidity: 88%   Direction: 160°SSE
Pressure: 30.27"   Gusts: NA
Location:  43.01°N, 83.68°W
Report Text: KFNT 230853Z 16003KT 7SM BKN002 M01/M03 A3027 RMK AO2 SLP256 I1000 I3000 T10111028 58008
Loading
Personal Weather Stations






























Interactive Weather Map New forecast layout! Learn more

10-Day Weather Forecast

Advertisements
Track Severe Weather on mobile